Time;durP1;ratioP1;P1;durP2;ratioP2;P2;SDS_P1;SDS_P2;PMS_P1;PMS_P2;Temp;Humidity;BMP_temperature;BMP_pressure;BME280_temperature;BME280_humidity;BME280_pressure;Samples;Min_cycle;Max_cycle;Signal;HPM_P1;HPM_P2
2020/12/08 00:01:48;;;;;;;3.28;2.30;;;20.40;45.40;;;;;;6293696;28;20025;-66
2020/12/08 00:04:48;;;;;;;3.35;2.30;;;20.50;45.50;;;;;;6293548;28;20085;-66
2020/12/08 00:07:49;;;;;;;3.85;2.03;;;20.50;45.40;;;;;;6293633;28;20029;-66
2020/12/08 00:10:50;;;;;;;3.40;2.25;;;20.50;45.50;;;;;;6292992;28;20100;-66
2020/12/08 00:13:50;;;;;;;2.65;2.10;;;20.50;45.40;;;;;;6293277;28;20075;-66
2020/12/08 00:16:51;;;;;;;3.83;2.20;;;20.50;45.50;;;;;;6293028;28;20035;-66
2020/12/08 00:19:51;;;;;;;3.03;2.03;;;20.50;45.50;;;;;;6293043;28;20039;-67
2020/12/08 00:22:52;;;;;;;3.25;2.20;;;20.50;45.50;;;;;;6292624;28;20379;-66
2020/12/08 00:25:52;;;;;;;2.35;1.73;;;20.40;45.40;;;;;;6293492;28;20017;-66
2020/12/08 00:28:53;;;;;;;2.80;2.08;;;20.40;45.50;;;;;;6292760;28;20044;-66
2020/12/08 00:31:53;;;;;;;2.55;1.90;;;20.40;45.50;;;;;;6292417;28;20059;-66
2020/12/08 00:34:54;;;;;;;2.78;1.90;;;20.40;45.50;;;;;;6292135;28;20487;-66
2020/12/08 00:37:54;;;;;;;2.78;2.13;;;20.40;45.50;;;;;;6292553;28;20033;-66
2020/12/08 00:40:55;;;;;;;2.50;1.95;;;20.50;45.60;;;;;;6292879;28;20037;-66
2020/12/08 00:43:55;;;;;;;3.72;2.10;;;20.40;45.50;;;;;;6292180;28;20253;-66
2020/12/08 00:46:56;;;;;;;3.53;2.13;;;20.40;45.50;;;;;;6292811;28;20425;-66
2020/12/08 00:49:56;;;;;;;2.50;2.17;;;20.50;45.60;;;;;;6292293;28;20394;-66
2020/12/08 00:52:57;;;;;;;2.90;2.10;;;20.40;45.60;;;;;;6292678;28;20052;-66
2020/12/08 00:55:58;;;;;;;2.53;1.83;;;20.40;45.60;;;;;;6292316;28;20490;-66
2020/12/08 00:58:58;;;;;;;2.53;2.05;;;20.40;45.60;;;;;;6291701;28;20036;-66
2020/12/08 01:02:01;;;;;;;2.90;2.13;;;20.40;45.60;;;;;;6292199;28;20028;-66
2020/12/08 01:05:01;;;;;;;3.60;2.20;;;20.40;45.60;;;;;;6291839;28;20021;-66
2020/12/08 01:08:02;;;;;;;2.90;2.30;;;20.40;45.60;;;;;;6292038;28;20059;-66
2020/12/08 01:11:02;;;;;;;2.20;1.70;;;20.40;45.70;;;;;;6308885;28;20027;-66
2020/12/08 01:14:03;;;;;;;3.08;2.13;;;20.40;45.60;;;;;;6317441;28;20027;-66
2020/12/08 01:17:05;;;;;;;3.08;2.00;;;20.40;45.70;;;;;;6316315;28;20394;-66
2020/12/08 01:20:05;;;;;;;2.88;2.15;;;20.40;45.60;;;;;;6316615;28;20112;-66
2020/12/08 01:23:06;;;;;;;3.22;2.13;;;20.40;45.60;;;;;;6317239;28;20028;-67
2020/12/08 01:26:07;;;;;;;2.97;2.05;;;20.40;45.60;;;;;;6316499;28;20032;-66
2020/12/08 01:29:07;;;;;;;3.13;1.95;;;20.40;46.30;;;;;;6316930;28;20065;-66
2020/12/08 01:32:08;;;;;;;3.22;2.28;;;20.40;45.70;;;;;;6316295;28;20024;-66
2020/12/08 01:35:08;;;;;;;2.65;1.92;;;20.40;45.70;;;;;;6317324;28;20024;-66
2020/12/08 01:38:09;;;;;;;4.28;1.92;;;20.40;45.80;;;;;;6316076;28;20028;-66
2020/12/08 01:41:09;;;;;;;3.92;2.55;;;20.40;45.80;;;;;;6316285;28;20020;-66
2020/12/08 01:44:10;;;;;;;2.75;1.92;;;20.40;45.80;;;;;;6316472;28;20016;-66
2020/12/08 01:47:10;;;;;;;3.65;2.03;;;20.40;45.70;;;;;;6316689;28;20119;-66
2020/12/08 01:50:11;;;;;;;2.90;2.05;;;20.40;45.80;;;;;;6316334;28;20067;-66
2020/12/08 01:53:11;;;;;;;4.10;2.33;;;20.40;45.80;;;;;;6316136;28;20028;-67
2020/12/08 01:56:13;;;;;;;3.28;2.22;;;20.40;45.80;;;;;;6316898;28;20497;-66
2020/12/08 01:59:13;;;;;;;3.40;2.20;;;20.40;46.50;;;;;;6316687;28;20024;-66
2020/12/08 02:02:14;;;;;;;4.85;2.33;;;20.40;45.80;;;;;;6316153;28;20039;-66
2020/12/08 02:05:15;;;;;;;2.83;1.83;;;20.40;45.80;;;;;;6316200;28;20463;-67
2020/12/08 02:08:36;;;;;;;2.90;2.33;;;20.40;45.80;;;;;;6292106;28;20032;-66
2020/12/08 02:11:36;;;;;;;3.33;2.05;;;20.40;45.80;;;;;;6290834;28;20490;-66
2020/12/08 02:14:37;;;;;;;3.10;2.15;;;20.40;45.80;;;;;;6291609;28;20078;-66
2020/12/08 02:17:37;;;;;;;4.25;2.40;;;20.40;45.80;;;;;;6290929;28;20032;-66
2020/12/08 02:20:37;;;;;;;3.15;2.35;;;20.40;45.80;;;;;;6291582;28;20036;-66
2020/12/08 02:23:38;;;;;;;2.83;2.10;;;20.40;45.80;;;;;;6291253;28;20021;-66
2020/12/08 02:26:38;;;;;;;2.80;2.33;;;20.40;45.90;;;;;;6290768;28;20035;-66
2020/12/08 02:29:40;;;;;;;2.80;2.10;;;20.40;45.90;;;;;;6290851;28;20096;-66
2020/12/08 02:32:40;;;;;;;4.43;2.38;;;20.30;45.80;;;;;;6290421;28;20044;-66
2020/12/08 02:35:41;;;;;;;3.50;2.17;;;20.40;45.90;;;;;;6291495;28;20021;-66
2020/12/08 02:38:41;;;;;;;2.47;2.00;;;20.30;45.80;;;;;;6290658;28;20111;-66
2020/12/08 02:41:42;;;;;;;3.50;2.45;;;20.30;45.80;;;;;;6290085;28;20035;-66
2020/12/08 02:44:42;;;;;;;4.03;2.63;;;20.30;45.80;;;;;;6291056;28;20032;-66
2020/12/08 02:47:45;;;;;;;3.35;2.35;;;20.40;46.00;;;;;;6291424;28;20024;-66
2020/12/08 02:50:45;;;;;;;3.17;2.10;;;20.40;45.90;;;;;;6290165;28;20043;-66
2020/12/08 02:53:46;;;;;;;4.82;2.70;;;20.30;45.80;;;;;;6291100;28;20025;-66
2020/12/08 02:56:46;;;;;;;3.25;2.15;;;20.40;46.00;;;;;;6291495;28;20028;-66
2020/12/08 02:59:47;;;;;;;3.80;2.47;;;20.30;45.90;;;;;;6294215;28;20040;-66
2020/12/08 03:02:47;;;;;;;3.97;2.50;;;20.30;45.90;;;;;;6294960;28;20171;-66
2020/12/08 03:05:47;;;;;;;4.50;2.60;;;20.30;45.90;;;;;;6294603;28;20052;-66
2020/12/08 03:08:48;;;;;;;4.22;2.65;;;20.30;45.90;;;;;;6295374;28;20021;-66
2020/12/08 03:11:48;;;;;;;2.85;2.10;;;20.40;46.00;;;;;;6294552;28;20086;-66
2020/12/08 03:14:49;;;;;;;3.40;2.25;;;20.30;45.80;;;;;;6295009;28;20518;-66
2020/12/08 03:17:49;;;;;;;3.25;2.58;;;20.30;45.80;;;;;;6294687;28;20025;-66
2020/12/08 03:20:51;;;;;;;3.72;2.60;;;20.30;45.90;;;;;;6294445;28;20041;-66
2020/12/08 03:23:51;;;;;;;3.15;2.10;;;20.30;45.90;;;;;;6294536;28;20066;-66
2020/12/08 03:26:53;;;;;;;3.15;2.47;;;20.30;45.90;;;;;;6294210;28;20510;-66
2020/12/08 03:29:54;;;;;;;3.72;2.53;;;20.30;46.00;;;;;;6294445;28;20213;-66
2020/12/08 03:32:54;;;;;;;3.35;2.35;;;20.30;46.00;;;;;;6293907;28;20384;-67
2020/12/08 03:35:55;;;;;;;4.10;2.40;;;20.30;46.00;;;;;;6294533;28;20028;-66
2020/12/08 03:38:55;;;;;;;3.75;2.58;;;20.30;46.00;;;;;;6294222;28;20039;-66
2020/12/08 03:41:57;;;;;;;3.40;2.60;;;20.30;45.90;;;;;;6294067;28;20032;-66
2020/12/08 03:44:57;;;;;;;4.55;2.80;;;20.30;46.00;;;;;;6293974;28;20069;-66
2020/12/08 03:47:58;;;;;;;3.50;2.38;;;20.30;45.90;;;;;;6294126;28;20461;-66
2020/12/08 03:50:58;;;;;;;4.40;2.90;;;20.30;46.00;;;;;;6293713;28;20032;-66
2020/12/08 03:53:59;;;;;;;5.10;2.80;;;20.30;46.00;;;;;;6293554;28;20082;-66
2020/12/08 03:56:59;;;;;;;4.40;2.78;;;20.30;46.10;;;;;;6293896;28;20025;-66
2020/12/08 04:00:00;;;;;;;4.45;2.47;;;20.30;46.00;;;;;;6293172;28;20437;-66
2020/12/08 04:03:00;;;;;;;4.40;3.28;;;20.30;46.00;;;;;;6293394;28;20021;-66
2020/12/08 04:06:04;;;;;;;4.65;2.97;;;20.30;46.00;;;;;;6293452;28;20483;-66
2020/12/08 04:09:05;;;;;;;4.90;2.80;;;20.30;46.00;;;;;;6293519;28;20438;-66
2020/12/08 04:12:05;;;;;;;3.72;2.55;;;20.30;46.00;;;;;;6292811;28;20025;-66
2020/12/08 04:15:06;;;;;;;3.97;2.53;;;20.30;46.00;;;;;;6293246;28;20095;-66
2020/12/08 04:18:08;;;;;;;4.00;2.60;;;20.30;46.00;;;;;;6293550;28;20024;-66
2020/12/08 04:21:08;;;;;;;4.45;2.75;;;20.30;46.10;;;;;;6292960;28;20451;-66
2020/12/08 04:24:09;;;;;;;4.47;3.00;;;20.30;46.00;;;;;;6293394;28;20029;-66
2020/12/08 04:27:09;;;;;;;3.20;2.40;;;20.30;46.10;;;;;;6293295;28;20352;-66
2020/12/08 04:30:10;;;;;;;4.15;2.75;;;20.30;46.10;;;;;;6292886;28;20036;-66
2020/12/08 04:33:13;;;;;;;4.45;2.80;;;20.30;46.00;;;;;;6292831;28;20423;-66
2020/12/08 04:36:17;;;;;;;4.15;2.67;;;20.30;46.10;;;;;;6292930;28;20021;-66
2020/12/08 04:39:18;;;;;;;3.97;2.67;;;20.30;46.10;;;;;;6292452;28;20267;-66
2020/12/08 04:42:18;;;;;;;4.68;2.72;;;20.30;46.20;;;;;;6292621;28;20025;-66
2020/12/08 04:45:19;;;;;;;5.13;3.03;;;20.30;46.10;;;;;;6292916;28;20493;-66
2020/12/08 04:48:19;;;;;;;4.47;2.60;;;20.30;46.20;;;;;;6292152;28;20043;-66
2020/12/08 04:51:20;;;;;;;4.70;2.92;;;20.20;46.10;;;;;;6292672;28;20032;-66
2020/12/08 04:54:21;;;;;;;3.95;2.80;;;20.30;46.20;;;;;;6292213;28;20074;-66
2020/12/08 04:57:23;;;;;;;4.72;2.92;;;20.30;46.20;;;;;;6292850;28;20455;-66
2020/12/08 05:00:23;;;;;;;4.32;2.90;;;20.30;46.20;;;;;;6291760;28;20470;-66
2020/12/08 05:03:26;;;;;;;5.20;3.03;;;20.30;46.10;;;;;;6292539;28;20032;-66
2020/12/08 05:06:28;;;;;;;3.95;2.85;;;20.20;46.00;;;;;;6292351;28;20534;-66
2020/12/08 05:09:28;;;;;;;5.07;3.20;;;20.30;46.10;;;;;;6291125;28;20047;-66
2020/12/08 05:12:29;;;;;;;5.32;3.10;;;20.30;46.00;;;;;;6291913;28;20020;-66
2020/12/08 05:15:29;;;;;;;4.38;2.88;;;20.30;46.80;;;;;;6296291;28;20025;-66
2020/12/08 05:18:33;;;;;;;4.13;2.65;;;20.30;46.00;;;;;;6327028;28;20032;-66
2020/12/08 05:21:34;;;;;;;4.80;3.17;;;20.30;46.00;;;;;;6314679;28;20110;-66
2020/12/08 05:24:35;;;;;;;4.32;3.05;;;20.30;46.10;;;;;;6317228;28;20019;-66
2020/12/08 05:27:36;;;;;;;5.40;3.15;;;20.30;46.00;;;;;;6316898;28;20028;-66
2020/12/08 05:30:44;;;;;;;4.57;2.85;;;20.40;46.20;;;;;;6318191;28;20024;-66
2020/12/08 05:33:47;;;;;;;4.65;3.10;;;20.30;46.10;;;;;;6319031;28;20024;-66
2020/12/08 05:36:53;;;;;;;4.97;2.92;;;20.40;46.20;;;;;;6316751;28;20039;-66
2020/12/08 05:39:53;;;;;;;4.60;2.85;;;20.30;46.10;;;;;;6316295;28;20416;-66
2020/12/08 05:42:54;;;;;;;5.45;3.45;;;20.40;46.20;;;;;;6316342;28;20028;-66
2020/12/08 05:45:56;;;;;;;3.97;2.65;;;20.40;46.20;;;;;;6327256;22;20027;-57
2020/12/08 05:48:59;;;;;;;4.28;2.80;;;20.30;46.20;;;;;;6242145;28;20108;-53
2020/12/08 05:52:00;;;;;;;6.30;3.35;;;20.40;46.30;;;;;;6241680;28;20443;-51
2020/12/08 05:55:16;;;;;;;4.43;3.10;;;20.40;46.30;;;;;;6242171;28;20034;-54
2020/12/08 05:58:16;;;;;;;5.60;3.10;;;20.40;46.30;;;;;;6241505;28;20065;-56
2020/12/08 06:01:17;;;;;;;5.15;3.38;;;20.40;46.30;;;;;;6241294;28;20045;-56
2020/12/08 06:04:17;;;;;;;5.32;3.47;;;20.40;46.30;;;;;;6226181;28;20018;-54
2020/12/08 06:07:26;;;;;;;4.60;2.85;;;20.40;46.40;;;;;;6220660;28;20409;-51
2020/12/08 06:10:27;;;;;;;5.72;3.25;;;20.40;46.40;;;;;;6242136;28;20091;-53
2020/12/08 06:13:32;;;;;;;5.10;3.20;;;20.40;46.40;;;;;;6242665;28;20480;-54
2020/12/08 06:16:33;;;;;;;5.15;3.15;;;20.40;46.40;;;;;;6242730;28;20067;-55
2020/12/08 06:19:35;;;;;;;5.20;2.92;;;20.40;46.50;;;;;;6241299;28;20124;-57
2020/12/08 06:22:35;;;;;;;7.93;3.50;;;20.40;46.40;;;;;;6240649;28;20025;-58
2020/12/08 06:25:36;;;;;;;32.75;14.02;;;20.40;46.40;;;;;;6214532;28;20060;-53
2020/12/08 06:28:37;;;;;;;36.58;21.45;;;20.20;43.70;;;;;;6216267;28;20073;-56
2020/12/08 06:31:44;;;;;;;42.58;23.35;;;20.10;41.30;;;;;;6212964;28;20048;-56
2020/12/08 06:34:44;;;;;;;44.63;24.23;;;20.10;40.10;;;;;;6236973;28;20053;-61
2020/12/08 06:37:50;;;;;;;55.78;24.50;;;20.10;39.20;;;;;;6244834;28;20029;-59
2020/12/08 06:40:55;;;;;;;42.53;23.33;;;20.10;38.80;;;;;;6234603;28;20022;-60
2020/12/08 06:43:56;;;;;;;43.05;23.63;;;20.10;38.50;;;;;;6230323;28;20494;-57
2020/12/08 06:46:58;;;;;;;45.22;25.63;;;20.00;38.50;;;;;;6257134;28;20041;-56
2020/12/08 06:49:59;;;;;;;43.67;24.63;;;20.00;37.70;;;;;;6236437;28;20018;-61
2020/12/08 06:53:03;;;;;;;42.63;23.02;;;20.00;37.80;;;;;;6220091;28;20390;-58
2020/12/08 06:56:04;;;;;;;36.28;19.55;;;20.10;38.70;;;;;;6232198;28;20025;-58
2020/12/08 06:59:04;;;;;;;36.63;18.55;;;20.50;39.50;;;;;;6240634;28;20033;-52
2020/12/08 07:02:05;;;;;;;29.25;16.92;;;20.80;39.90;;;;;;6220473;28;20018;-57
2020/12/08 07:05:06;;;;;;;34.05;17.88;;;20.80;40.20;;;;;;6235940;28;20064;-59
2020/12/08 07:08:08;;;;;;;26.60;15.60;;;20.90;40.70;;;;;;6236191;28;20113;-60
2020/12/08 07:11:19;;;;;;;32.15;15.15;;;21.00;40.80;;;;;;6245120;28;20039;-58
2020/12/08 07:14:27;;;;;;;28.33;14.05;;;21.00;40.90;;;;;;6233441;28;20429;-58
2020/12/08 07:17:29;;;;;;;25.55;14.38;;;21.10;41.00;;;;;;6232559;28;20057;-57
2020/12/08 07:20:31;;;;;;;25.45;13.45;;;21.00;41.50;;;;;;6221195;28;20038;-60
2020/12/08 07:23:38;;;;;;;30.27;13.55;;;21.00;41.90;;;;;;6221073;28;20506;-54
2020/12/08 07:26:39;;;;;;;22.25;12.80;;;21.00;42.00;;;;;;6258529;28;20029;-55
2020/12/08 07:29:40;;;;;;;25.50;12.85;;;21.00;42.20;;;;;;6242030;28;20165;-54
2020/12/08 07:32:41;;;;;;;25.20;13.13;;;21.00;42.40;;;;;;6233591;28;20029;-66
2020/12/08 07:35:44;;;;;;;25.42;13.43;;;21.00;42.70;;;;;;6224960;28;20068;-57
2020/12/08 07:38:49;;;;;;;23.40;12.82;;;21.20;42.50;;;;;;6245038;28;20104;-61
2020/12/08 07:42:00;;;;;;;24.50;12.07;;;21.10;42.90;;;;;;6224488;28;20165;-51
2020/12/08 07:45:01;;;;;;;24.75;11.30;;;21.20;43.10;;;;;;6224012;28;20032;-56
2020/12/08 07:48:02;;;;;;;18.58;11.45;;;21.20;43.20;;;;;;6229034;28;20061;-57
2020/12/08 07:51:02;;;;;;;22.90;11.13;;;21.40;43.50;;;;;;6246347;28;20124;-56
2020/12/08 07:54:05;;;;;;;18.45;10.55;;;21.40;42.70;;;;;;6204119;28;20089;-57
2020/12/08 07:57:05;;;;;;;21.02;11.07;;;21.20;42.80;;;;;;6213052;28;20041;-60
2020/12/08 08:00:06;;;;;;;19.58;10.73;;;21.10;43.00;;;;;;6208405;28;20026;-55
2020/12/08 08:03:06;;;;;;;19.90;11.10;;;21.00;43.20;;;;;;6210915;28;20060;-58
2020/12/08 08:06:16;;;;;;;19.25;11.13;;;21.10;43.20;;;;;;6230183;28;20079;-60
2020/12/08 08:09:17;;;;;;;25.38;11.15;;;21.20;43.90;;;;;;6222271;28;20434;-57
2020/12/08 08:12:18;;;;;;;18.95;10.93;;;21.30;43.80;;;;;;6219077;28;20052;-60
2020/12/08 08:15:18;;;;;;;18.08;10.30;;;21.30;43.50;;;;;;6221759;28;20473;-62
2020/12/08 08:18:19;;;;;;;15.60;9.23;;;21.30;43.30;;;;;;6244071;28;20371;-59
2020/12/08 08:21:20;;;;;;;17.70;9.38;;;21.30;43.30;;;;;;6233105;28;20029;-58
2020/12/08 08:24:20;;;;;;;16.50;9.23;;;21.30;43.10;;;;;;6218966;28;20022;-61
2020/12/08 08:27:21;;;;;;;16.90;9.65;;;21.30;43.20;;;;;;6218837;28;20026;-55
2020/12/08 08:30:22;;;;;;;21.40;9.95;;;21.30;43.80;;;;;;6216304;28;20529;-57
2020/12/08 08:33:23;;;;;;;17.30;10.07;;;21.40;43.70;;;;;;6234345;28;20075;-64
2020/12/08 08:36:24;;;;;;;20.33;9.90;;;21.50;43.80;;;;;;6237720;28;20440;-58
2020/12/08 08:39:24;;;;;;;18.52;9.90;;;21.50;43.80;;;;;;6235414;28;20036;-61
2020/12/08 08:42:25;;;;;;;18.33;8.93;;;21.50;43.80;;;;;;6217805;28;20025;-67
2020/12/08 08:45:26;;;;;;;16.05;9.35;;;21.50;44.20;;;;;;6230375;28;20160;-60
2020/12/08 08:48:27;;;;;;;19.48;9.30;;;21.60;44.00;;;;;;6208224;28;20034;-66
2020/12/08 08:51:27;;;;;;;17.65;8.90;;;21.60;44.10;;;;;;6216402;28;20541;-63
2020/12/08 08:54:28;;;;;;;17.38;7.97;;;21.70;44.00;;;;;;6207065;28;20478;-62
2020/12/08 08:57:29;;;;;;;18.20;8.70;;;21.70;44.10;;;;;;6226960;28;20023;-59
2020/12/08 09:00:29;;;;;;;17.35;9.02;;;21.70;44.00;;;;;;6237069;28;20022;-62
2020/12/08 09:03:30;;;;;;;24.80;10.80;;;21.60;43.90;;;;;;6243483;28;20028;-58
2020/12/08 09:06:31;;;;;;;17.88;9.98;;;21.60;43.90;;;;;;6259647;28;20022;-56
2020/12/08 09:09:33;;;;;;;30.33;9.82;;;21.60;43.70;;;;;;6237805;28;20116;-61
2020/12/08 09:12:34;;;;;;;16.50;8.90;;;21.50;44.30;;;;;;6218160;28;20033;-62
2020/12/08 09:15:34;;;;;;;18.15;8.88;;;21.50;44.00;;;;;;6230937;28;20029;-54
2020/12/08 09:18:35;;;;;;;18.35;8.80;;;21.50;43.90;;;;;;6243440;28;20025;-62
2020/12/08 09:21:36;;;;;;;13.73;8.77;;;21.50;44.40;;;;;;6242391;28;20518;-62
2020/12/08 09:24:37;;;;;;;17.63;8.38;;;21.60;44.10;;;;;;6227591;28;20698;-57
2020/12/08 09:27:38;;;;;;;18.38;8.77;;;21.40;43.90;;;;;;6220729;28;20453;-61
2020/12/08 09:30:38;;;;;;;19.10;8.85;;;21.30;44.30;;;;;;6223991;28;20541;-56
2020/12/08 09:33:39;;;;;;;12.95;7.78;;;21.40;44.80;;;;;;6218775;28;20033;-61
2020/12/08 09:36:40;;;;;;;13.57;7.68;;;21.80;44.00;;;;;;6234322;28;20025;-65
2020/12/08 09:39:41;;;;;;;14.07;8.23;;;21.90;43.20;;;;;;6212831;28;20048;-59
2020/12/08 09:42:44;;;;;;;12.63;7.57;;;21.80;43.20;;;;;;6216714;28;20025;-59
2020/12/08 09:45:44;;;;;;;13.40;7.93;;;21.80;43.30;;;;;;6234578;28;20575;-59
2020/12/08 09:48:45;;;;;;;15.60;8.10;;;21.80;43.30;;;;;;6218900;28;20045;-59
2020/12/08 09:51:46;;;;;;;14.65;8.20;;;21.80;43.20;;;;;;6217073;28;20041;-56
2020/12/08 09:54:46;;;;;;;12.02;7.25;;;21.80;43.30;;;;;;6234390;28;20075;-55
2020/12/08 09:57:47;;;;;;;12.40;6.78;;;21.80;43.40;;;;;;6250376;28;20130;-54
2020/12/08 10:00:48;;;;;;;11.10;6.88;;;21.80;43.40;;;;;;6222239;28;20030;-57
2020/12/08 10:03:48;;;;;;;13.77;7.70;;;21.80;43.50;;;;;;6234121;28;20371;-55
2020/12/08 10:06:49;;;;;;;12.77;7.07;;;21.70;43.50;;;;;;6259018;28;20022;-55
2020/12/08 10:09:50;;;;;;;16.92;7.57;;;21.70;43.60;;;;;;6238623;28;20105;-58
2020/12/08 10:12:51;;;;;;;15.68;7.25;;;21.70;43.60;;;;;;6239573;28;20498;-56
2020/12/08 10:15:52;;;;;;;13.45;7.85;;;21.70;43.50;;;;;;6235598;28;20022;-56
2020/12/08 10:18:53;;;;;;;11.02;7.00;;;21.90;43.40;;;;;;6247252;28;20542;-59
2020/12/08 10:21:57;;;;;;;15.68;8.15;;;22.00;43.10;;;;;;6246442;28;20032;-65
2020/12/08 10:24:58;;;;;;;16.50;8.37;;;22.00;42.80;;;;;;6258853;28;20029;-55
2020/12/08 10:28:00;;;;;;;16.55;8.55;;;22.10;42.60;;;;;;6222206;28;20257;-53
2020/12/08 10:31:00;;;;;;;21.17;7.78;;;22.10;42.40;;;;;;6222020;28;20037;-56
2020/12/08 10:34:01;;;;;;;16.70;7.85;;;22.20;42.60;;;;;;6220412;28;20025;-56
2020/12/08 10:37:02;;;;;;;12.95;7.53;;;22.20;42.60;;;;;;6220912;28;20120;-58
2020/12/08 10:40:03;;;;;;;12.48;7.40;;;22.20;42.60;;;;;;6232187;28;20482;-59
2020/12/08 10:43:03;;;;;;;13.73;7.05;;;22.30;42.60;;;;;;6220549;28;20033;-58
2020/12/08 10:46:04;;;;;;;12.20;7.28;;;22.20;42.60;;;;;;6221410;28;20088;-55
2020/12/08 10:49:05;;;;;;;11.60;6.80;;;22.30;42.90;;;;;;6237962;28;20079;-56
2020/12/08 10:52:06;;;;;;;21.73;7.20;;;22.40;42.60;;;;;;6244418;28;20417;-61
2020/12/08 10:55:07;;;;;;;10.65;6.88;;;22.40;42.40;;;;;;6222281;28;20053;-60
2020/12/08 10:58:08;;;;;;;11.50;7.15;;;22.30;42.50;;;;;;6259200;28;20052;-57
2020/12/08 11:01:09;;;;;;;12.82;6.60;;;22.30;42.50;;;;;;6241103;28;20029;-58
2020/12/08 11:04:09;;;;;;;11.35;6.82;;;22.30;42.50;;;;;;6220389;28;20022;-56
2020/12/08 11:07:10;;;;;;;12.50;6.80;;;22.20;42.50;;;;;;6222913;28;20092;-59
2020/12/08 11:10:11;;;;;;;20.05;6.45;;;22.20;42.70;;;;;;6236423;28;20491;-63
2020/12/08 11:13:11;;;;;;;17.23;7.72;;;22.30;42.60;;;;;;6221447;28;20026;-61
2020/12/08 11:16:12;;;;;;;14.68;6.10;;;22.40;42.50;;;;;;6229278;28;20034;-59
2020/12/08 11:19:13;;;;;;;14.57;6.70;;;22.50;42.60;;;;;;6226335;28;20105;-55
2020/12/08 11:22:14;;;;;;;15.52;6.50;;;22.50;42.90;;;;;;6236976;28;20029;-59
2020/12/08 11:25:14;;;;;;;27.25;7.30;;;22.50;43.00;;;;;;6245580;28;20056;-55
2020/12/08 11:28:15;;;;;;;25.92;7.15;;;22.40;43.50;;;;;;6236619;28;20026;-59
2020/12/08 11:31:16;;;;;;;13.48;6.65;;;22.40;43.80;;;;;;6253421;28;20116;-60
2020/12/08 11:34:16;;;;;;;18.60;6.50;;;22.40;44.20;;;;;;6224786;28;20030;-57
2020/12/08 11:37:18;;;;;;;10.85;5.97;;;22.30;44.30;;;;;;6244790;28;20028;-58
2020/12/08 11:40:18;;;;;;;10.35;6.30;;;22.30;44.50;;;;;;6244185;28;20026;-63
2020/12/08 11:43:19;;;;;;;26.90;14.25;;;22.20;44.00;;;;;;6238208;28;20057;-62
2020/12/08 11:46:20;;;;;;;33.60;19.30;;;21.90;40.10;;;;;;6238601;28;20030;-62
2020/12/08 11:49:20;;;;;;;30.35;16.70;;;21.70;37.90;;;;;;6219320;28;20028;-61
2020/12/08 11:52:21;;;;;;;28.35;16.27;;;21.80;39.60;;;;;;6219838;28;20121;-61
2020/12/08 11:55:22;;;;;;;26.25;13.90;;;21.90;40.10;;;;;;6221128;28;20458;-61
2020/12/08 11:58:23;;;;;;;22.05;12.57;;;22.10;40.20;;;;;;6231589;28;20041;-59
2020/12/08 12:01:24;;;;;;;23.90;12.07;;;22.20;40.40;;;;;;6224618;28;20033;-61
2020/12/08 12:04:25;;;;;;;21.83;11.50;;;22.10;40.40;;;;;;6243361;28;20021;-60
2020/12/08 12:07:25;;;;;;;24.38;11.23;;;22.00;40.80;;;;;;6228536;28;20091;-60
2020/12/08 12:10:26;;;;;;;21.77;10.90;;;22.00;41.30;;;;;;6243154;28;20026;-61
2020/12/08 12:13:27;;;;;;;21.52;10.57;;;21.90;41.60;;;;;;6225084;28;20409;-58
2020/12/08 12:16:29;;;;;;;19.00;10.38;;;21.90;41.90;;;;;;6220571;28;20025;-61
2020/12/08 12:19:32;;;;;;;18.05;10.20;;;21.90;42.00;;;;;;6230204;28;20026;-61
2020/12/08 12:22:33;;;;;;;20.80;9.65;;;21.90;42.20;;;;;;6227895;28;20036;-60
2020/12/08 12:25:34;;;;;;;14.82;8.98;;;21.90;42.20;;;;;;6244072;28;20486;-62
2020/12/08 12:28:34;;;;;;;15.43;8.68;;;21.90;42.40;;;;;;6225512;28;20032;-61
2020/12/08 12:31:35;;;;;;;18.10;9.50;;;21.90;42.50;;;;;;6221810;28;20450;-61
2020/12/08 12:34:36;;;;;;;25.30;9.80;;;21.90;42.80;;;;;;6234260;28;20032;-58
2020/12/08 12:37:39;;;;;;;13.82;8.75;;;22.00;42.80;;;;;;6235153;28;20034;-61
2020/12/08 12:40:40;;;;;;;15.10;8.48;;;22.10;42.60;;;;;;6218804;28;20068;-63
2020/12/08 12:43:41;;;;;;;15.55;8.52;;;22.20;42.60;;;;;;6237079;28;20021;-60
2020/12/08 12:46:41;;;;;;;11.95;7.80;;;22.20;42.70;;;;;;6242608;28;20171;-64
2020/12/08 12:49:42;;;;;;;13.30;7.85;;;22.10;43.30;;;;;;6217016;28;20109;-65
2020/12/08 12:52:43;;;;;;;15.13;7.95;;;21.90;43.80;;;;;;6218411;28;20033;-62
2020/12/08 12:55:43;;;;;;;14.18;8.05;;;22.00;43.20;;;;;;6217620;28;20037;-61
2020/12/08 12:58:44;;;;;;;14.77;7.75;;;22.00;43.20;;;;;;6224738;28;20026;-59
2020/12/08 13:01:45;;;;;;;13.52;7.88;;;21.80;43.80;;;;;;6218592;28;20037;-66
2020/12/08 13:04:46;;;;;;;20.25;8.07;;;21.70;43.80;;;;;;6253801;28;20091;-60
2020/12/08 13:07:46;;;;;;;14.85;8.05;;;23.00;42.20;;;;;;6259194;28;20112;-61
2020/12/08 13:10:47;;;;;;;14.05;7.60;;;22.70;42.00;;;;;;6237925;28;20033;-60
2020/12/08 13:13:48;;;;;;;11.68;7.38;;;22.50;42.70;;;;;;6242697;28;20144;-59
2020/12/08 13:16:49;;;;;;;13.60;7.78;;;22.30;43.60;;;;;;6242039;28;20052;-62
2020/12/08 13:19:49;;;;;;;16.45;7.28;;;22.30;43.10;;;;;;6225296;28;20482;-61
2020/12/08 13:22:50;;;;;;;17.17;7.07;;;22.20;43.30;;;;;;6217130;28;20029;-59
2020/12/08 13:25:51;;;;;;;103.47;10.45;;;22.30;43.40;;;;;;6240846;28;20025;-61
2020/12/08 13:28:52;;;;;;;34.42;7.93;;;22.30;43.80;;;;;;6224368;28;20028;-57
2020/12/08 13:31:53;;;;;;;38.85;7.93;;;22.40;44.10;;;;;;6217192;28;20442;-62
2020/12/08 13:34:54;;;;;;;33.17;8.80;;;22.40;44.30;;;;;;6220766;28;20022;-61
2020/12/08 13:37:55;;;;;;;33.83;8.18;;;22.40;44.10;;;;;;6217158;28;20187;-58
2020/12/08 13:40:56;;;;;;;24.50;7.53;;;22.40;43.90;;;;;;6225459;28;20049;-63
2020/12/08 13:43:57;;;;;;;21.48;7.68;;;22.50;44.20;;;;;;6215838;28;20092;-62
2020/12/08 13:46:58;;;;;;;24.75;7.75;;;22.50;44.10;;;;;;6218279;28;20041;-63
2020/12/08 13:49:58;;;;;;;17.52;6.97;;;22.40;44.00;;;;;;6223336;28;20509;-63
2020/12/08 13:53:00;;;;;;;23.23;7.65;;;22.40;44.00;;;;;;5325260;28;10000971;-61
2020/12/08 13:56:01;;;;;;;16.47;7.33;;;22.50;44.00;;;;;;5321160;28;10000838;-62
2020/12/08 13:59:02;;;;;;;22.38;6.65;;;22.50;44.60;;;;;;6193281;28;20725;-61
2020/12/08 14:02:02;;;;;;;31.50;8.18;;;22.50;44.10;;;;;;6202513;28;20053;-69
2020/12/08 14:05:03;;;;;;;15.75;6.63;;;22.50;43.90;;;;;;6213492;28;20037;-62
2020/12/08 14:08:04;;;;;;;23.38;6.85;;;22.50;43.90;;;;;;6192457;28;20031;-57
2020/12/08 14:11:05;;;;;;;19.75;7.53;;;22.40;44.10;;;;;;6200306;28;20030;-60
2020/12/08 14:14:06;;;;;;;18.25;6.93;;;22.30;44.40;;;;;;6192680;28;20509;-59
2020/12/08 14:17:06;;;;;;;13.50;6.85;;;22.20;44.50;;;;;;6192449;28;20031;-61
2020/12/08 14:20:08;;;;;;;17.65;7.50;;;22.20;44.50;;;;;;6196153;28;20022;-62
2020/12/08 14:23:09;;;;;;;11.43;6.15;;;22.10;44.80;;;;;;5331638;28;10000324;-62
2020/12/08 14:26:09;;;;;;;12.90;5.93;;;22.10;44.80;;;;;;6203370;28;20032;-60
2020/12/08 14:29:10;;;;;;;12.53;6.37;;;22.10;44.80;;;;;;5330830;28;10000839;-61
2020/12/08 14:32:11;;;;;;;11.57;6.15;;;22.10;44.80;;;;;;6192653;28;20023;-60
2020/12/08 14:35:12;;;;;;;16.38;6.68;;;22.10;44.70;;;;;;6198599;28;20068;-61
2020/12/08 14:38:12;;;;;;;13.63;6.90;;;22.10;44.80;;;;;;6216283;28;20470;-62
2020/12/08 14:41:13;;;;;;;16.25;7.22;;;22.20;45.40;;;;;;6210139;28;20118;-62
2020/12/08 14:44:16;;;;;;;17.13;6.10;;;22.20;44.40;;;;;;6217699;28;20116;-63
2020/12/08 14:47:16;;;;;;;12.73;6.20;;;22.30;44.30;;;;;;6207452;28;20516;-60
2020/12/08 14:50:17;;;;;;;11.25;6.15;;;22.30;44.20;;;;;;6215965;28;20022;-59
2020/12/08 14:53:18;;;;;;;10.60;6.03;;;22.20;44.10;;;;;;6193612;28;20034;-59
2020/12/08 14:56:24;;;;;;;10.05;6.05;;;22.00;45.00;;;;;;6196146;28;20366;-60
2020/12/08 14:59:25;;;;;;;10.10;6.18;;;22.20;44.60;;;;;;6195863;28;20556;-60
2020/12/08 15:02:26;;;;;;;11.95;5.85;;;22.20;44.50;;;;;;6195295;28;20117;-59
2020/12/08 15:05:27;;;;;;;13.77;5.88;;;22.20;44.40;;;;;;6206097;28;20022;-60
2020/12/08 15:08:28;;;;;;;9.98;5.50;;;22.20;44.40;;;;;;6220479;28;20097;-59
2020/12/08 15:11:29;;;;;;;12.00;5.63;;;22.20;44.50;;;;;;6216759;28;20026;-60
2020/12/08 15:14:30;;;;;;;11.27;5.43;;;22.20;44.40;;;;;;6220725;28;20030;-59
2020/12/08 15:17:30;;;;;;;7.75;5.05;;;22.20;44.50;;;;;;6212717;28;20029;-60
2020/12/08 15:20:31;;;;;;;11.25;5.85;;;22.20;44.60;;;;;;6218238;28;20034;-58
2020/12/08 15:23:32;;;;;;;10.27;5.57;;;22.20;44.60;;;;;;6215996;28;20030;-62
2020/12/08 15:26:37;;;;;;;15.50;5.82;;;22.20;44.60;;;;;;6200389;28;20023;-59
2020/12/08 15:29:38;;;;;;;8.98;5.00;;;22.20;44.60;;;;;;6220715;28;20064;-62
2020/12/08 15:32:40;;;;;;;8.85;5.97;;;22.20;44.60;;;;;;6215416;28;20391;-62